Peggy Ann — WDC3327 — position and weather

sailwx.info

Track history (hours):
 
Tides and Currents Weather Stations Pressure Air Temp Water Temp Dewpoint Dewpoint Depression Visibility Wind Speed Wind Dir Waves Ship Positions

Peggy Ann

Owner: BROUSSARD BROTHERS INC, ABBEVILLE, LA. More information available from US FCC via Universal Licensing System and Coast Guard Vessel Documentation Center.

Last reported at 2017-Oct-16 10:11 UTC. Time now 2017-Oct-18 01:56 UTC.
Position N 29°50' W 091°57'.

Length 21 m; draft 2.5 m.

Type: Tug. MMSI: 367005920.

Date/timePositionNaut miles runAvg speedWind from/ knotsBaromVisibWave heightAir tempDewpointWater temp
2017-Oct-16 10:11N 29°50' W 091°57'2 7.1
2017-Oct-16 09:58N 29°50' W 091°59'0 0.8
2017-Oct-16 09:30N 29°50' W 091°59'0 0.0
2017-Oct-16 09:00N 29°50' W 091°59'0 0.1
2017-Oct-16 08:30N 29°50' W 091°59'0 0.0
2017-Oct-16 07:17N 29°50' W 091°59'0 0.0
2017-Oct-16 06:49N 29°50' W 091°59'0 0.1
2017-Oct-16 06:30N 29°50' W 091°59'0 0.0
2017-Oct-16 05:55N 29°50' W 091°59'0 0.0
2017-Oct-16 05:23N 29°50' W 091°59'0 0.0
2017-Oct-16 04:58N 29°50' W 091°59'0 0.0
2017-Oct-16 04:26N 29°50' W 091°59'2 3.7
2017-Oct-16 04:00N 29°49' W 092°01'4 8.1
2017-Oct-16 03:31N 29°48' W 092°06'2 5.0
2017-Oct-16 03:00N 29°48' W 092°08'1 2.6
2017-Oct-16 02:31N 29°47' W 092°09'0 0.7
2017-Oct-16 02:00N 29°47' W 092°09'3 6.9
2017-Oct-16 01:30N 29°48' W 092°05'3 6.7
2017-Oct-16 01:01N 29°49' W 092°02'2 3.6
2017-Oct-16 00:27N 29°50' W 091°59'0 0.0
2017-Oct-15 23:53N 29°50' W 091°59'0 0.0
2017-Oct-15 23:16N 29°50' W 091°59'0 0.0
2017-Oct-15 22:46N 29°50' W 091°59'0 0.1
2017-Oct-15 22:17N 29°50' W 091°59'0 0.1
2017-Oct-15 21:56N 29°50' W 091°59'0 0.0
2017-Oct-15 21:25N 29°50' W 091°59'0 0.0
2017-Oct-15 20:20N 29°50' W 091°59'0 0.2
2017-Oct-15 19:59N 29°50' W 091°59'0 0.1
2017-Oct-15 19:30N 29°50' W 091°59'0 0.9
2017-Oct-15 19:00N 29°50' W 091°60'4 7.9
2017-Oct-15 18:30N 29°48' W 092°04'4 7.7
2017-Oct-15 18:01N 29°47' W 092°08'2 3.4
2017-Oct-15 17:30N 29°47' W 092°10'1 1.3
2017-Oct-15 17:00N 29°47' W 092°11'0 0.4
2017-Oct-15 16:30N 29°47' W 092°11'0 0.0
2017-Oct-15 16:00N 29°47' W 092°11'0 0.0
2017-Oct-15 15:31N 29°47' W 092°11'0 0.0
2017-Oct-15 15:01N 29°47' W 092°11'0 0.0
2017-Oct-15 14:00N 29°47' W 092°11'0 0.0
2017-Oct-15 13:31N 29°47' W 092°11'0 0.0
2017-Oct-15 13:00N 29°47' W 092°11'0 0.0
2017-Oct-15 12:30N 29°47' W 092°11'0 0.0
2017-Oct-15 12:00N 29°47' W 092°11'0 0.0
2017-Oct-15 11:31N 29°47' W 092°11'0 0.0
2017-Oct-15 11:00N 29°47' W 092°11'0 0.0
2017-Oct-15 10:30N 29°47' W 092°11'0 0.0
2017-Oct-15 10:00N 29°47' W 092°11'0 0.0
2017-Oct-15 09:30N 29°47' W 092°11'0 0.0
2017-Oct-15 09:00N 29°47' W 092°11'0 0.0
2017-Oct-15 08:30N 29°47' W 092°11'0 0.0
2017-Oct-15 08:00N 29°47' W 092°11'0 0.0
2017-Oct-15 07:30N 29°47' W 092°11'0 0.0
2017-Oct-15 07:00N 29°47' W 092°11'0 0.0
2017-Oct-15 06:30N 29°47' W 092°11'0 0.0
2017-Oct-15 06:00N 29°47' W 092°11'0 0.0
2017-Oct-15 05:30N 29°47' W 092°11'0 0.0
2017-Oct-15 05:00N 29°47' W 092°11'0 0.0
2017-Oct-15 04:30N 29°47' W 092°11'0 0.0
2017-Oct-15 04:00N 29°47' W 092°11'0 0.0
2017-Oct-15 03:30N 29°47' W 092°11'0 0.0
2017-Oct-15 03:00N 29°47' W 092°11'0 0.0
2017-Oct-15 02:30N 29°47' W 092°11'0 0.0
2017-Oct-15 02:00N 29°47' W 092°11'0 0.0
2017-Oct-15 01:30N 29°47' W 092°11'0 0.0
2017-Oct-15 01:00N 29°47' W 092°11'0 0.0
2017-Oct-15 00:30N 29°47' W 092°11'0 0.0
2017-Oct-15 00:00N 29°47' W 092°11'0 0.0
2017-Oct-14 23:30N 29°47' W 092°11'0 0.0
2017-Oct-14 23:00N 29°47' W 092°11'0 0.0
2017-Oct-14 22:30N 29°47' W 092°11'0 0.0
2017-Oct-14 22:00N 29°47' W 092°11'0 0.0
2017-Oct-14 21:30N 29°47' W 092°11'0 0.0
2017-Oct-14 21:00N 29°47' W 092°11'1 1.6
2017-Oct-14 20:30N 29°47' W 092°10'2 4.0
2017-Oct-14 20:00N 29°46' W 092°08'3 6.6
2017-Oct-14 19:30N 29°43' W 092°06'3 6.3
2017-Oct-14 19:00N 29°41' W 092°04'  
2017-Oct-10 06:47N 29°39' W 092°02'2 5.7
2017-Oct-10 06:30N 29°40' W 092°03'3 5.7
2017-Oct-10 06:00N 29°42' W 092°05'3 5.8
2017-Oct-10 05:30N 29°45' W 092°07'3 5.9
2017-Oct-10 05:00N 29°47' W 092°09'2 3.4
2017-Oct-10 04:30N 29°47' W 092°11'0 0.8
2017-Oct-10 04:00N 29°47' W 092°11'0 0.0
2017-Oct-10 03:30N 29°47' W 092°11'0 0.0
2017-Oct-10 03:00N 29°47' W 092°11'0 0.0
2017-Oct-10 02:30N 29°47' W 092°11'0 0.0
2017-Oct-10 02:00N 29°47' W 092°11'0 0.0
2017-Oct-10 01:30N 29°47' W 092°11'0 0.0
2017-Oct-10 01:00N 29°47' W 092°11'0 0.0
2017-Oct-10 00:30N 29°47' W 092°11'0 0.0
2017-Oct-10 00:00N 29°47' W 092°11'0 0.0
2017-Oct-09 23:30N 29°47' W 092°11'0 0.0
2017-Oct-09 23:00N 29°47' W 092°11'0 0.0
2017-Oct-09 22:30N 29°47' W 092°11'0 0.0
2017-Oct-09 22:00N 29°47' W 092°11'0 0.0
2017-Oct-09 21:30N 29°47' W 092°11'0 0.0
2017-Oct-09 21:00N 29°47' W 092°11'0 0.0
2017-Oct-09 20:30N 29°47' W 092°11'0 0.0
2017-Oct-09 20:00N 29°47' W 092°11'0 0.0
2017-Oct-09 19:30N 29°47' W 092°11'0 0.0
2017-Oct-09 19:00N 29°47' W 092°11'0 0.0
2017-Oct-09 18:30N 29°47' W 092°11'0 0.0
2017-Oct-09 18:01N 29°47' W 092°11'0 0.0
2017-Oct-09 17:30N 29°47' W 092°11'0 0.0
2017-Oct-09 17:00N 29°47' W 092°11'0 0.0
2017-Oct-09 16:31N 29°47' W 092°11'0 0.0
2017-Oct-09 16:00N 29°47' W 092°11'0 0.0
2017-Oct-09 15:30N 29°47' W 092°11'0 0.0
2017-Oct-09 15:01N 29°47' W 092°11'1 1.5
2017-Oct-09 14:30N 29°47' W 092°10'1 1.6
2017-Oct-09 14:01N 29°47' W 092°11'0 0.0
2017-Oct-09 13:30N 29°47' W 092°11'0 0.0
2017-Oct-09 13:01N 29°47' W 092°11'0 0.2
2017-Oct-09 12:30N 29°47' W 092°11'0 0.0
2017-Oct-09 12:00N 29°47' W 092°11'0 0.3
2017-Oct-09 11:31N 29°47' W 092°11'0 0.0
2017-Oct-09 11:00N 29°47' W 092°11'0 0.0
2017-Oct-09 10:31N 29°47' W 092°11'0 0.0
2017-Oct-09 10:00N 29°47' W 092°11'0 0.0
2017-Oct-09 09:30N 29°47' W 092°11'0 0.0
2017-Oct-09 09:00N 29°47' W 092°11'0 0.0
2017-Oct-09 08:30N 29°47' W 092°11'0 0.5
2017-Oct-09 08:01N 29°47' W 092°11'2 3.9
2017-Oct-09 07:30N 29°48' W 092°13'5 8.2
2017-Oct-09 06:57N 29°50' W 092°18'38 6.6
2017-Oct-09 01:11N 29°56' W 093°01'2 8.7
2017-Oct-09 01:00N 29°56' W 093°03'4 8.5
2017-Oct-09 00:30N 29°56' W 093°08'4 8.2
2017-Oct-09 00:01N 29°59' W 093°12'4 7.8
2017-Oct-08 23:31N 30°02' W 093°15'4 8.3
2017-Oct-08 23:00N 30°05' W 093°17'1 1.3
2017-Oct-08 22:31N 30°05' W 093°18'0 0.0
2017-Oct-08 22:01N 30°05' W 093°18'0 0.0
2017-Oct-08 21:31N 30°05' W 093°18'3 5.3
2017-Oct-08 21:01N 30°04' W 093°21'4 7.9
2017-Oct-08 20:31N 30°04' W 093°25'5 9.2
2017-Oct-08 20:00N 30°04' W 093°30'5 9.2
2017-Oct-08 19:30N 30°04' W 093°36'74 3.5
2017-Oct-07 22:15N 29°29' W 094°52'2 7.4
2017-Oct-07 21:59N 29°31' W 094°53'3 7.1
2017-Oct-07 21:30N 29°33' W 094°55'3 6.8
2017-Oct-07 21:00N 29°36' W 094°57'4 7.4
2017-Oct-07 20:30N 29°40' W 094°58'4 7.5
2017-Oct-07 20:00N 29°43' W 095°01'3 7.1
2017-Oct-07 19:30N 29°45' W 095°04'4 6.3
2017-Oct-07 18:57N 29°44' W 095°08'2 1.6
2017-Oct-07 17:39N 29°45' W 095°10'0 0.1
2017-Oct-07 17:28N 29°45' W 095°10'0 0.0
2017-Oct-07 17:00N 29°45' W 095°10'0 0.1
2017-Oct-07 16:30N 29°45' W 095°10'0 0.0
2017-Oct-07 13:10N 29°45' W 095°10'0 0.0
2017-Oct-07 12:53N 29°45' W 095°10'0 0.7
2017-Oct-07 12:29N 29°45' W 095°10'5 5.7
2017-Oct-07 11:33N 29°45' W 095°04'0 6.4
2017-Oct-07 11:29N 29°45' W 095°04'3 6.1
2017-Oct-07 11:00N 29°43' W 095°01'3 6.7
2017-Oct-07 10:30N 29°40' W 094°59'4 7.1
2017-Oct-07 10:00N 29°37' W 094°57'71 3.6
2017-Oct-06 14:14N 30°03' W 093°42'2 7.9
2017-Oct-06 14:00N 30°04' W 093°40'4 8.5
2017-Oct-06 13:30N 30°04' W 093°35'4 8.5
2017-Oct-06 13:00N 30°04' W 093°30'4 8.4
2017-Oct-06 12:30N 30°04' W 093°25'4 7.3
2017-Oct-06 12:00N 30°04' W 093°21'3 5.9
2017-Oct-06 11:30N 30°05' W 093°18'3 6.1
2017-Oct-06 11:00N 30°03' W 093°16'4 6.6
2017-Oct-06 10:28N 30°00' W 093°13'  
Track history (hours):
 
Tides and Currents Weather Stations Pressure Air Temp Water Temp Dewpoint Dewpoint Depression Visibility Wind Speed Wind Dir Waves Ship Positions

Peggy Ann

Owner: BROUSSARD BROTHERS INC, ABBEVILLE, LA. More information available from US FCC via Universal Licensing System and Coast Guard Vessel Documentation Center.

Last reported at 2017-Oct-16 10:11 UTC. Time now 2017-Oct-18 01:56 UTC.
Position N 29°50' W 091°57'.

Length 21 m; draft 2.5 m.

Type: Tug. MMSI: 367005920.

Date/timePositionNaut miles runAvg speedWind from/ knotsBaromVisibWave heightAir tempDewpointWater temp
2017-Oct-16 10:11N 29°50' W 091°57'2 7.1
2017-Oct-16 09:58N 29°50' W 091°59'0 0.8
2017-Oct-16 09:30N 29°50' W 091°59'0 0.0
2017-Oct-16 09:00N 29°50' W 091°59'0 0.1
2017-Oct-16 08:30N 29°50' W 091°59'0 0.0
2017-Oct-16 07:17N 29°50' W 091°59'0 0.0
2017-Oct-16 06:49N 29°50' W 091°59'0 0.1
2017-Oct-16 06:30N 29°50' W 091°59'0 0.0
2017-Oct-16 05:55N 29°50' W 091°59'0 0.0
2017-Oct-16 05:23N 29°50' W 091°59'0 0.0
2017-Oct-16 04:58N 29°50' W 091°59'0 0.0
2017-Oct-16 04:26N 29°50' W 091°59'2 3.7
2017-Oct-16 04:00N 29°49' W 092°01'4 8.1
2017-Oct-16 03:31N 29°48' W 092°06'2 5.0
2017-Oct-16 03:00N 29°48' W 092°08'1 2.6
2017-Oct-16 02:31N 29°47' W 092°09'0 0.7
2017-Oct-16 02:00N 29°47' W 092°09'3 6.9
2017-Oct-16 01:30N 29°48' W 092°05'3 6.7
2017-Oct-16 01:01N 29°49' W 092°02'2 3.6
2017-Oct-16 00:27N 29°50' W 091°59'0 0.0
2017-Oct-15 23:53N 29°50' W 091°59'0 0.0
2017-Oct-15 23:16N 29°50' W 091°59'0 0.0
2017-Oct-15 22:46N 29°50' W 091°59'0 0.1
2017-Oct-15 22:17N 29°50' W 091°59'0 0.1
2017-Oct-15 21:56N 29°50' W 091°59'0 0.0
2017-Oct-15 21:25N 29°50' W 091°59'0 0.0
2017-Oct-15 20:20N 29°50' W 091°59'0 0.2
2017-Oct-15 19:59N 29°50' W 091°59'0 0.1
2017-Oct-15 19:30N 29°50' W 091°59'0 0.9
2017-Oct-15 19:00N 29°50' W 091°60'4 7.9
2017-Oct-15 18:30N 29°48' W 092°04'4 7.7
2017-Oct-15 18:01N 29°47' W 092°08'2 3.4
2017-Oct-15 17:30N 29°47' W 092°10'1 1.3
2017-Oct-15 17:00N 29°47' W 092°11'0 0.4
2017-Oct-15 16:30N 29°47' W 092°11'0 0.0
2017-Oct-15 16:00N 29°47' W 092°11'0 0.0
2017-Oct-15 15:31N 29°47' W 092°11'0 0.0
2017-Oct-15 15:01N 29°47' W 092°11'0 0.0
2017-Oct-15 14:00N 29°47' W 092°11'0 0.0
2017-Oct-15 13:31N 29°47' W 092°11'0 0.0
2017-Oct-15 13:00N 29°47' W 092°11'0 0.0
2017-Oct-15 12:30N 29°47' W 092°11'0 0.0
2017-Oct-15 12:00N 29°47' W 092°11'0 0.0
2017-Oct-15 11:31N 29°47' W 092°11'0 0.0
2017-Oct-15 11:00N 29°47' W 092°11'0 0.0
2017-Oct-15 10:30N 29°47' W 092°11'0 0.0
2017-Oct-15 10:00N 29°47' W 092°11'0 0.0
2017-Oct-15 09:30N 29°47' W 092°11'0 0.0
2017-Oct-15 09:00N 29°47' W 092°11'0 0.0
2017-Oct-15 08:30N 29°47' W 092°11'0 0.0
2017-Oct-15 08:00N 29°47' W 092°11'0 0.0
2017-Oct-15 07:30N 29°47' W 092°11'0 0.0
2017-Oct-15 07:00N 29°47' W 092°11'0 0.0
2017-Oct-15 06:30N 29°47' W 092°11'0 0.0
2017-Oct-15 06:00N 29°47' W 092°11'0 0.0
2017-Oct-15 05:30N 29°47' W 092°11'0 0.0
2017-Oct-15 05:00N 29°47' W 092°11'0 0.0
2017-Oct-15 04:30N 29°47' W 092°11'0 0.0
2017-Oct-15 04:00N 29°47' W 092°11'0 0.0
2017-Oct-15 03:30N 29°47' W 092°11'0 0.0
2017-Oct-15 03:00N 29°47' W 092°11'0 0.0
2017-Oct-15 02:30N 29°47' W 092°11'0 0.0
2017-Oct-15 02:00N 29°47' W 092°11'0 0.0
2017-Oct-15 01:30N 29°47' W 092°11'0 0.0
2017-Oct-15 01:00N 29°47' W 092°11'0 0.0
2017-Oct-15 00:30N 29°47' W 092°11'0 0.0
2017-Oct-15 00:00N 29°47' W 092°11'0 0.0
2017-Oct-14 23:30N 29°47' W 092°11'0 0.0
2017-Oct-14 23:00N 29°47' W 092°11'0 0.0
2017-Oct-14 22:30N 29°47' W 092°11'0 0.0
2017-Oct-14 22:00N 29°47' W 092°11'0 0.0
2017-Oct-14 21:30N 29°47' W 092°11'0 0.0
2017-Oct-14 21:00N 29°47' W 092°11'1 1.6
2017-Oct-14 20:30N 29°47' W 092°10'2 4.0
2017-Oct-14 20:00N 29°46' W 092°08'3 6.6
2017-Oct-14 19:30N 29°43' W 092°06'3 6.3
2017-Oct-14 19:00N 29°41' W 092°04'  
2017-Oct-10 06:47N 29°39' W 092°02'2 5.7
2017-Oct-10 06:30N 29°40' W 092°03'3 5.7
2017-Oct-10 06:00N 29°42' W 092°05'3 5.8
2017-Oct-10 05:30N 29°45' W 092°07'3 5.9
2017-Oct-10 05:00N 29°47' W 092°09'2 3.4
2017-Oct-10 04:30N 29°47' W 092°11'0 0.8
2017-Oct-10 04:00N 29°47' W 092°11'0 0.0
2017-Oct-10 03:30N 29°47' W 092°11'0 0.0
2017-Oct-10 03:00N 29°47' W 092°11'0 0.0
2017-Oct-10 02:30N 29°47' W 092°11'0 0.0
2017-Oct-10 02:00N 29°47' W 092°11'0 0.0
2017-Oct-10 01:30N 29°47' W 092°11'0 0.0
2017-Oct-10 01:00N 29°47' W 092°11'0 0.0
2017-Oct-10 00:30N 29°47' W 092°11'0 0.0
2017-Oct-10 00:00N 29°47' W 092°11'0 0.0
2017-Oct-09 23:30N 29°47' W 092°11'0 0.0
2017-Oct-09 23:00N 29°47' W 092°11'0 0.0
2017-Oct-09 22:30N 29°47' W 092°11'0 0.0
2017-Oct-09 22:00N 29°47' W 092°11'0 0.0
2017-Oct-09 21:30N 29°47' W 092°11'0 0.0
2017-Oct-09 21:00N 29°47' W 092°11'0 0.0
2017-Oct-09 20:30N 29°47' W 092°11'0 0.0
2017-Oct-09 20:00N 29°47' W 092°11'0 0.0
2017-Oct-09 19:30N 29°47' W 092°11'0 0.0
2017-Oct-09 19:00N 29°47' W 092°11'0 0.0
2017-Oct-09 18:30N 29°47' W 092°11'0 0.0
2017-Oct-09 18:01N 29°47' W 092°11'0 0.0
2017-Oct-09 17:30N 29°47' W 092°11'0 0.0
2017-Oct-09 17:00N 29°47' W 092°11'0 0.0
2017-Oct-09 16:31N 29°47' W 092°11'0 0.0
2017-Oct-09 16:00N 29°47' W 092°11'0 0.0
2017-Oct-09 15:30N 29°47' W 092°11'0 0.0
2017-Oct-09 15:01N 29°47' W 092°11'1 1.5
2017-Oct-09 14:30N 29°47' W 092°10'1 1.6
2017-Oct-09 14:01N 29°47' W 092°11'0 0.0
2017-Oct-09 13:30N 29°47' W 092°11'0 0.0
2017-Oct-09 13:01N 29°47' W 092°11'0 0.2
2017-Oct-09 12:30N 29°47' W 092°11'0 0.0
2017-Oct-09 12:00N 29°47' W 092°11'0 0.3
2017-Oct-09 11:31N 29°47' W 092°11'0 0.0
2017-Oct-09 11:00N 29°47' W 092°11'0 0.0
2017-Oct-09 10:31N 29°47' W 092°11'0 0.0
2017-Oct-09 10:00N 29°47' W 092°11'0 0.0
2017-Oct-09 09:30N 29°47' W 092°11'0 0.0
2017-Oct-09 09:00N 29°47' W 092°11'0 0.0
2017-Oct-09 08:30N 29°47' W 092°11'0 0.5
2017-Oct-09 08:01N 29°47' W 092°11'2 3.9
2017-Oct-09 07:30N 29°48' W 092°13'5 8.2
2017-Oct-09 06:57N 29°50' W 092°18'38 6.6
2017-Oct-09 01:11N 29°56' W 093°01'2 8.7
2017-Oct-09 01:00N 29°56' W 093°03'4 8.5
2017-Oct-09 00:30N 29°56' W 093°08'4 8.2
2017-Oct-09 00:01N 29°59' W 093°12'4 7.8
2017-Oct-08 23:31N 30°02' W 093°15'4 8.3
2017-Oct-08 23:00N 30°05' W 093°17'1 1.3
2017-Oct-08 22:31N 30°05' W 093°18'0 0.0
2017-Oct-08 22:01N 30°05' W 093°18'0 0.0
2017-Oct-08 21:31N 30°05' W 093°18'3 5.3
2017-Oct-08 21:01N 30°04' W 093°21'4 7.9
2017-Oct-08 20:31N 30°04' W 093°25'5 9.2
2017-Oct-08 20:00N 30°04' W 093°30'5 9.2
2017-Oct-08 19:30N 30°04' W 093°36'74 3.5
2017-Oct-07 22:15N 29°29' W 094°52'2 7.4
2017-Oct-07 21:59N 29°31' W 094°53'3 7.1
2017-Oct-07 21:30N 29°33' W 094°55'3 6.8
2017-Oct-07 21:00N 29°36' W 094°57'4 7.4
2017-Oct-07 20:30N 29°40' W 094°58'4 7.5
2017-Oct-07 20:00N 29°43' W 095°01'3 7.1
2017-Oct-07 19:30N 29°45' W 095°04'4 6.3
2017-Oct-07 18:57N 29°44' W 095°08'2 1.6
2017-Oct-07 17:39N 29°45' W 095°10'0 0.1
2017-Oct-07 17:28N 29°45' W 095°10'0 0.0
2017-Oct-07 17:00N 29°45' W 095°10'0 0.1
2017-Oct-07 16:30N 29°45' W 095°10'0 0.0
2017-Oct-07 13:10N 29°45' W 095°10'0 0.0
2017-Oct-07 12:53N 29°45' W 095°10'0 0.7
2017-Oct-07 12:29N 29°45' W 095°10'5 5.7
2017-Oct-07 11:33N 29°45' W 095°04'0 6.4
2017-Oct-07 11:29N 29°45' W 095°04'3 6.1
2017-Oct-07 11:00N 29°43' W 095°01'3 6.7
2017-Oct-07 10:30N 29°40' W 094°59'4 7.1
2017-Oct-07 10:00N 29°37' W 094°57'71 3.6
2017-Oct-06 14:14N 30°03' W 093°42'2 7.9
2017-Oct-06 14:00N 30°04' W 093°40'4 8.5
2017-Oct-06 13:30N 30°04' W 093°35'4 8.5
2017-Oct-06 13:00N 30°04' W 093°30'4 8.4
2017-Oct-06 12:30N 30°04' W 093°25'4 7.3
2017-Oct-06 12:00N 30°04' W 093°21'3 5.9
2017-Oct-06 11:30N 30°05' W 093°18'3 6.1
2017-Oct-06 11:00N 30°03' W 093°16'4 6.6
2017-Oct-06 10:28N 30°00' W 093°13'  

Dump ship's entire track history